Skip Navigation LinksHome page > Weather > Current weather Skip Navigation Links

Current Weather

Cincinnati/Northern Kentucky International, Covington, Ky.

For information only: do not use for flight planning or navigation.
Latest weather
Observation time Tuesday, December 1, 2020 8:52 AM EST
Local time Tuesday, December 1, 2020 9:25 AM EST
Flight conditions Marginal Visual Meteorological Conditions
Winds
Wind direction West (270°)
Wind speed 12 mph
Visibility 10 mi.
Sky condition
Ceiling 1,600 ft. overcast
Cloud layer overcast 1,600 ft.
Temperature 30°F
Dewpoint 24°F
Altimeter 29.96 in.Hg
Derived measurements
Relative humidity 78%
Wind chill 21°F
Density altitude -1052 ft.
Sea-level pressure 29.98 in.Hg
Remarks
Automated weather observing station with precipitation discriminator.
METAR KCVG 011352Z 27010KT 10SM OVC016 M01/M04 A2996 RMK AO2 SLP152 T10111044

Settings

Location code

InnerDrive.Weather 4.0.6770.0 Release CLR 4.0.30319.42000
Copyright ©2018 Inner Drive Technology. All rights reserved. Portions Copyright ©1986-2018 David Braverman.

Find weather

Site navigation


Skip Navigation Links

Place info

Page info

PayPal - The safer, easier way to pay online!

Return home.

Copyright ©2020 Inner Drive Technology. Purveyors of fine, hand-crafted computer software. Page printed 2020-12-01T14:25:54 UTC.